CheckWX is a tool to help pilots better visualize weather data.  It is not intended as a substitute for an official pre-flight weather briefing.

23:00:48 UTC

LEBR TAF
Bardenas Reales Airport
Bardenas Reales, Spain
TAF LEBR 311400Z 3115/3124 VRB04KT 8000 SCT005 BKN015 TEMPO 3115/3124 3000 RA BKN009

Mar-31@
15:00 UTC

Mar-31 @ 15:00 UTC

Apr-1@
00:00 UTC

Apr-1 @ 00:00 UTC

TAF LEBR 311400Z 3115/3124 VRB04KT 8000 SCT005 BKN015
Wind
  • Variable at 4 KTS
Cloud Levels
  • Scattered at 500' AGL
  • Broken at 1,500' AGL

Mar-31@
15:00 UTC

Mar-31 @ 15:00 UTC

Apr-1@
00:00 UTC

Apr-1 @ 00:00 UTC

TEMPO 3115/3124 3000 RA BKN009

Temporary

Temporary Changes expected for less than half the time period

Conditions
Rain
Cloud Levels
  • Broken at 900' AGL